sensor_id;sensor_type;location;lat;lon;timestamp;P1;durP1;ratioP1;P2;durP2;ratioP2
34296;SDS011;20564;42.902;25.336;2023-05-07T00:02:14;4.68;;;1.75;;
34296;SDS011;20564;42.902;25.336;2023-05-07T00:05:27;5.65;;;2.33;;
34296;SDS011;20564;42.902;25.336;2023-05-07T00:07:54;5.45;;;2.15;;
34296;SDS011;20564;42.902;25.336;2023-05-07T00:10:25;5.72;;;1.95;;
34296;SDS011;20564;42.902;25.336;2023-05-07T00:12:52;6.25;;;2.40;;
34296;SDS011;20564;42.902;25.336;2023-05-07T00:15:20;3.80;;;1.85;;
34296;SDS011;20564;42.902;25.336;2023-05-07T00:17:47;4.80;;;2.00;;
34296;SDS011;20564;42.902;25.336;2023-05-07T00:21:08;6.57;;;2.25;;
34296;SDS011;20564;42.902;25.336;2023-05-07T00:23:35;7.68;;;2.20;;
34296;SDS011;20564;42.902;25.336;2023-05-07T00:26:04;6.38;;;2.17;;
34296;SDS011;20564;42.902;25.336;2023-05-07T00:31:58;4.15;;;1.73;;
34296;SDS011;20564;42.902;25.336;2023-05-07T00:34:41;5.32;;;2.15;;
34296;SDS011;20564;42.902;25.336;2023-05-07T00:37:37;5.13;;;1.85;;
34296;SDS011;20564;42.902;25.336;2023-05-07T00:40:33;6.00;;;2.05;;
34296;SDS011;20564;42.902;25.336;2023-05-07T00:43:32;4.05;;;1.83;;
34296;SDS011;20564;42.902;25.336;2023-05-07T00:46:02;5.05;;;1.88;;
34296;SDS011;20564;42.902;25.336;2023-05-07T00:51:37;4.28;;;1.65;;
34296;SDS011;20564;42.902;25.336;2023-05-07T00:54:07;6.88;;;2.08;;
34296;SDS011;20564;42.902;25.336;2023-05-07T00:56:36;4.57;;;1.75;;
34296;SDS011;20564;42.902;25.336;2023-05-07T00:59:10;5.57;;;2.35;;
34296;SDS011;20564;42.902;25.336;2023-05-07T01:01:38;4.22;;;1.70;;
34296;SDS011;20564;42.902;25.336;2023-05-07T01:04:10;5.85;;;1.80;;
34296;SDS011;20564;42.902;25.336;2023-05-07T01:06:39;3.70;;;1.63;;
34296;SDS011;20564;42.902;25.336;2023-05-07T01:09:12;4.47;;;1.98;;
34296;SDS011;20564;42.902;25.336;2023-05-07T01:11:41;4.55;;;2.05;;
34296;SDS011;20564;42.902;25.336;2023-05-07T01:14:10;4.85;;;1.77;;
34296;SDS011;20564;42.902;25.336;2023-05-07T01:19:08;5.63;;;1.73;;
34296;SDS011;20564;42.902;25.336;2023-05-07T01:21:38;4.22;;;1.73;;
34296;SDS011;20564;42.902;25.336;2023-05-07T01:24:14;4.63;;;1.98;;
34296;SDS011;20564;42.902;25.336;2023-05-07T01:26:43;3.17;;;1.48;;
34296;SDS011;20564;42.902;25.336;2023-05-07T01:29:12;5.18;;;1.80;;
34296;SDS011;20564;42.902;25.336;2023-05-07T01:31:40;3.67;;;1.50;;
34296;SDS011;20564;42.902;25.336;2023-05-07T01:34:09;4.75;;;1.88;;
34296;SDS011;20564;42.902;25.336;2023-05-07T01:36:39;5.20;;;2.08;;
34296;SDS011;20564;42.902;25.336;2023-05-07T01:39:13;5.53;;;2.20;;
34296;SDS011;20564;42.902;25.336;2023-05-07T01:41:42;4.35;;;1.65;;
34296;SDS011;20564;42.902;25.336;2023-05-07T01:46:41;4.00;;;1.60;;
34296;SDS011;20564;42.902;25.336;2023-05-07T01:49:09;4.28;;;1.83;;
34296;SDS011;20564;42.902;25.336;2023-05-07T01:51:37;4.30;;;1.60;;
34296;SDS011;20564;42.902;25.336;2023-05-07T01:54:05;5.28;;;1.92;;
34296;SDS011;20564;42.902;25.336;2023-05-07T01:56:35;6.03;;;1.95;;
34296;SDS011;20564;42.902;25.336;2023-05-07T01:59:03;3.30;;;1.75;;
34296;SDS011;20564;42.902;25.336;2023-05-07T02:01:31;4.78;;;1.77;;
34296;SDS011;20564;42.902;25.336;2023-05-07T02:04:02;4.43;;;1.77;;
34296;SDS011;20564;42.902;25.336;2023-05-07T02:06:29;3.67;;;1.67;;
34296;SDS011;20564;42.902;25.336;2023-05-07T02:09:01;4.47;;;1.85;;
34296;SDS011;20564;42.902;25.336;2023-05-07T02:11:29;4.53;;;1.40;;
34296;SDS011;20564;42.902;25.336;2023-05-07T02:13:57;4.65;;;1.90;;
34296;SDS011;20564;42.902;25.336;2023-05-07T02:16:24;5.10;;;2.05;;
34296;SDS011;20564;42.902;25.336;2023-05-07T02:18:52;6.20;;;2.03;;
34296;SDS011;20564;42.902;25.336;2023-05-07T02:21:20;5.32;;;1.90;;
34296;SDS011;20564;42.902;25.336;2023-05-07T02:23:48;4.07;;;1.85;;
34296;SDS011;20564;42.902;25.336;2023-05-07T02:26:19;4.28;;;2.00;;
34296;SDS011;20564;42.902;25.336;2023-05-07T02:28:48;4.72;;;1.70;;
34296;SDS011;20564;42.902;25.336;2023-05-07T02:31:18;4.20;;;1.85;;
34296;SDS011;20564;42.902;25.336;2023-05-07T02:33:46;5.50;;;1.60;;
34296;SDS011;20564;42.902;25.336;2023-05-07T02:36:17;6.03;;;1.65;;
34296;SDS011;20564;42.902;25.336;2023-05-07T02:38:45;5.00;;;2.00;;
34296;SDS011;20564;42.902;25.336;2023-05-07T02:41:13;4.85;;;1.85;;
34296;SDS011;20564;42.902;25.336;2023-05-07T02:43:40;4.18;;;1.80;;
34296;SDS011;20564;42.902;25.336;2023-05-07T02:46:07;3.95;;;1.60;;
34296;SDS011;20564;42.902;25.336;2023-05-07T02:48:35;4.70;;;1.90;;
34296;SDS011;20564;42.902;25.336;2023-05-07T02:51:04;4.20;;;1.63;;
34296;SDS011;20564;42.902;25.336;2023-05-07T02:53:32;3.38;;;1.52;;
34296;SDS011;20564;42.902;25.336;2023-05-07T02:58:27;5.50;;;2.10;;
34296;SDS011;20564;42.902;25.336;2023-05-07T03:00:55;4.57;;;1.98;;
34296;SDS011;20564;42.902;25.336;2023-05-07T03:03:22;4.55;;;1.52;;
34296;SDS011;20564;42.902;25.336;2023-05-07T03:05:51;5.20;;;1.52;;
34296;SDS011;20564;42.902;25.336;2023-05-07T03:08:18;4.15;;;1.77;;
34296;SDS011;20564;42.902;25.336;2023-05-07T03:10:44;5.30;;;1.70;;
34296;SDS011;20564;42.902;25.336;2023-05-07T03:13:12;6.03;;;2.20;;
34296;SDS011;20564;42.902;25.336;2023-05-07T03:15:39;4.83;;;1.87;;
34296;SDS011;20564;42.902;25.336;2023-05-07T03:18:06;3.45;;;1.48;;
34296;SDS011;20564;42.902;25.336;2023-05-07T03:20:33;6.33;;;2.10;;
34296;SDS011;20564;42.902;25.336;2023-05-07T03:23:00;4.15;;;2.17;;
34296;SDS011;20564;42.902;25.336;2023-05-07T03:25:36;4.10;;;1.45;;
34296;SDS011;20564;42.902;25.336;2023-05-07T03:28:03;4.03;;;1.65;;
34296;SDS011;20564;42.902;25.336;2023-05-07T03:30:30;4.30;;;1.70;;
34296;SDS011;20564;42.902;25.336;2023-05-07T03:32:57;4.57;;;1.70;;
34296;SDS011;20564;42.902;25.336;2023-05-07T03:35:24;3.33;;;1.63;;
34296;SDS011;20564;42.902;25.336;2023-05-07T03:37:51;3.88;;;1.60;;
34296;SDS011;20564;42.902;25.336;2023-05-07T03:40:18;4.57;;;1.77;;
34296;SDS011;20564;42.902;25.336;2023-05-07T03:42:46;4.95;;;1.58;;
34296;SDS011;20564;42.902;25.336;2023-05-07T03:45:13;6.35;;;1.70;;
34296;SDS011;20564;42.902;25.336;2023-05-07T03:47:40;4.50;;;1.60;;
34296;SDS011;20564;42.902;25.336;2023-05-07T03:50:07;4.15;;;1.83;;
34296;SDS011;20564;42.902;25.336;2023-05-07T03:52:35;4.32;;;1.95;;
34296;SDS011;20564;42.902;25.336;2023-05-07T03:55:02;4.55;;;2.00;;
34296;SDS011;20564;42.902;25.336;2023-05-07T03:57:29;6.47;;;1.73;;
34296;SDS011;20564;42.902;25.336;2023-05-07T03:59:56;3.10;;;1.73;;
34296;SDS011;20564;42.902;25.336;2023-05-07T04:02:23;4.78;;;1.98;;
34296;SDS011;20564;42.902;25.336;2023-05-07T04:04:50;5.40;;;2.00;;
34296;SDS011;20564;42.902;25.336;2023-05-07T04:07:17;4.88;;;2.08;;
34296;SDS011;20564;42.902;25.336;2023-05-07T04:09:44;4.15;;;1.77;;
34296;SDS011;20564;42.902;25.336;2023-05-07T04:12:11;4.93;;;1.98;;
34296;SDS011;20564;42.902;25.336;2023-05-07T04:14:38;5.47;;;2.15;;
34296;SDS011;20564;42.902;25.336;2023-05-07T04:17:06;3.75;;;1.80;;
34296;SDS011;20564;42.902;25.336;2023-05-07T04:19:33;3.90;;;1.83;;
34296;SDS011;20564;42.902;25.336;2023-05-07T04:22:04;3.65;;;1.80;;
34296;SDS011;20564;42.902;25.336;2023-05-07T04:29:28;2.90;;;1.60;;
34296;SDS011;20564;42.902;25.336;2023-05-07T04:31:56;5.55;;;1.90;;
34296;SDS011;20564;42.902;25.336;2023-05-07T04:34:25;3.30;;;1.38;;
34296;SDS011;20564;42.902;25.336;2023-05-07T04:36:53;3.95;;;1.88;;
34296;SDS011;20564;42.902;25.336;2023-05-07T04:39:21;4.65;;;1.75;;
34296;SDS011;20564;42.902;25.336;2023-05-07T04:41:48;6.10;;;1.90;;
34296;SDS011;20564;42.902;25.336;2023-05-07T04:44:15;4.30;;;1.90;;
34296;SDS011;20564;42.902;25.336;2023-05-07T04:46:46;8.75;;;2.38;;
34296;SDS011;20564;42.902;25.336;2023-05-07T04:49:16;5.10;;;1.60;;
34296;SDS011;20564;42.902;25.336;2023-05-07T04:51:43;4.57;;;2.05;;
34296;SDS011;20564;42.902;25.336;2023-05-07T04:54:11;3.08;;;1.35;;
34296;SDS011;20564;42.902;25.336;2023-05-07T04:56:38;4.03;;;1.48;;
34296;SDS011;20564;42.902;25.336;2023-05-07T04:59:05;10.68;;;2.78;;
34296;SDS011;20564;42.902;25.336;2023-05-07T05:01:32;5.13;;;2.03;;
34296;SDS011;20564;42.902;25.336;2023-05-07T05:03:59;5.57;;;1.85;;
34296;SDS011;20564;42.902;25.336;2023-05-07T05:06:27;5.15;;;1.77;;
34296;SDS011;20564;42.902;25.336;2023-05-07T05:08:53;4.43;;;1.90;;
34296;SDS011;20564;42.902;25.336;2023-05-07T05:11:22;5.28;;;2.20;;
34296;SDS011;20564;42.902;25.336;2023-05-07T05:13:49;6.65;;;2.28;;
34296;SDS011;20564;42.902;25.336;2023-05-07T05:16:16;8.07;;;2.33;;
34296;SDS011;20564;42.902;25.336;2023-05-07T05:18:43;5.28;;;2.00;;
34296;SDS011;20564;42.902;25.336;2023-05-07T05:21:10;4.20;;;1.65;;
34296;SDS011;20564;42.902;25.336;2023-05-07T05:23:38;5.70;;;2.05;;
34296;SDS011;20564;42.902;25.336;2023-05-07T05:26:05;3.50;;;1.70;;
34296;SDS011;20564;42.902;25.336;2023-05-07T05:28:33;4.30;;;1.70;;
34296;SDS011;20564;42.902;25.336;2023-05-07T05:31:00;4.55;;;1.80;;
34296;SDS011;20564;42.902;25.336;2023-05-07T05:35:57;4.72;;;1.52;;
34296;SDS011;20564;42.902;25.336;2023-05-07T05:38:24;5.57;;;1.52;;
34296;SDS011;20564;42.902;25.336;2023-05-07T05:40:52;5.00;;;1.70;;
34296;SDS011;20564;42.902;25.336;2023-05-07T05:43:22;5.22;;;1.58;;
34296;SDS011;20564;42.902;25.336;2023-05-07T05:45:49;4.85;;;1.80;;
34296;SDS011;20564;42.902;25.336;2023-05-07T05:48:16;4.72;;;1.40;;
34296;SDS011;20564;42.902;25.336;2023-05-07T05:50:43;3.30;;;1.70;;
34296;SDS011;20564;42.902;25.336;2023-05-07T05:53:10;3.97;;;1.48;;
34296;SDS011;20564;42.902;25.336;2023-05-07T05:55:37;4.35;;;1.50;;
34296;SDS011;20564;42.902;25.336;2023-05-07T05:58:04;4.80;;;1.58;;
34296;SDS011;20564;42.902;25.336;2023-05-07T06:00:31;5.05;;;1.75;;
34296;SDS011;20564;42.902;25.336;2023-05-07T06:02:59;4.22;;;1.50;;
34296;SDS011;20564;42.902;25.336;2023-05-07T06:05:26;3.70;;;1.58;;
34296;SDS011;20564;42.902;25.336;2023-05-07T06:07:53;6.75;;;1.67;;
34296;SDS011;20564;42.902;25.336;2023-05-07T06:10:20;4.97;;;1.53;;
34296;SDS011;20564;42.902;25.336;2023-05-07T06:12:47;3.63;;;1.42;;
34296;SDS011;20564;42.902;25.336;2023-05-07T06:15:15;3.70;;;1.50;;
34296;SDS011;20564;42.902;25.336;2023-05-07T06:17:41;4.05;;;1.55;;
34296;SDS011;20564;42.902;25.336;2023-05-07T06:20:10;5.50;;;1.50;;
34296;SDS011;20564;42.902;25.336;2023-05-07T06:22:38;2.60;;;1.30;;
34296;SDS011;20564;42.902;25.336;2023-05-07T06:25:05;4.55;;;1.48;;
34296;SDS011;20564;42.902;25.336;2023-05-07T06:27:36;4.32;;;1.83;;
34296;SDS011;20564;42.902;25.336;2023-05-07T06:30:04;3.80;;;1.63;;
34296;SDS011;20564;42.902;25.336;2023-05-07T06:32:32;2.65;;;1.13;;
34296;SDS011;20564;42.902;25.336;2023-05-07T06:34:59;3.10;;;1.20;;
34296;SDS011;20564;42.902;25.336;2023-05-07T06:37:26;2.30;;;1.17;;
34296;SDS011;20564;42.902;25.336;2023-05-07T06:39:53;2.22;;;1.13;;
34296;SDS011;20564;42.902;25.336;2023-05-07T06:42:22;1.42;;;0.70;;
34296;SDS011;20564;42.902;25.336;2023-05-07T06:44:49;2.33;;;0.82;;
34296;SDS011;20564;42.902;25.336;2023-05-07T06:47:16;2.60;;;0.77;;
34296;SDS011;20564;42.902;25.336;2023-05-07T06:49:43;2.22;;;1.10;;
34296;SDS011;20564;42.902;25.336;2023-05-07T06:52:11;1.95;;;0.82;;
34296;SDS011;20564;42.902;25.336;2023-05-07T06:54:38;2.35;;;0.88;;
34296;SDS011;20564;42.902;25.336;2023-05-07T06:57:05;2.28;;;0.93;;
34296;SDS011;20564;42.902;25.336;2023-05-07T06:59:33;1.83;;;0.95;;
34296;SDS011;20564;42.902;25.336;2023-05-07T07:02:00;3.20;;;0.75;;
34296;SDS011;20564;42.902;25.336;2023-05-07T07:04:27;3.22;;;0.82;;
34296;SDS011;20564;42.902;25.336;2023-05-07T07:09:23;2.92;;;0.60;;
34296;SDS011;20564;42.902;25.336;2023-05-07T07:11:50;1.67;;;0.80;;
34296;SDS011;20564;42.902;25.336;2023-05-07T07:14:20;3.58;;;0.85;;
34296;SDS011;20564;42.902;25.336;2023-05-07T07:16:49;3.00;;;0.85;;
34296;SDS011;20564;42.902;25.336;2023-05-07T07:19:16;1.88;;;0.55;;
34296;SDS011;20564;42.902;25.336;2023-05-07T07:21:43;2.37;;;0.70;;
34296;SDS011;20564;42.902;25.336;2023-05-07T07:24:11;1.50;;;0.82;;
34296;SDS011;20564;42.902;25.336;2023-05-07T07:26:40;2.10;;;0.50;;
34296;SDS011;20564;42.902;25.336;2023-05-07T07:29:09;1.63;;;0.60;;
34296;SDS011;20564;42.902;25.336;2023-05-07T07:31:57;2.35;;;0.50;;
34296;SDS011;20564;42.902;25.336;2023-05-07T07:34:44;2.22;;;0.50;;
34296;SDS011;20564;42.902;25.336;2023-05-07T07:37:11;1.45;;;0.60;;
34296;SDS011;20564;42.902;25.336;2023-05-07T07:39:38;1.30;;;0.60;;
34296;SDS011;20564;42.902;25.336;2023-05-07T07:42:09;1.40;;;0.57;;
34296;SDS011;20564;42.902;25.336;2023-05-07T07:44:36;1.55;;;0.80;;
34296;SDS011;20564;42.902;25.336;2023-05-07T07:47:02;1.70;;;0.50;;
34296;SDS011;20564;42.902;25.336;2023-05-07T07:49:29;2.63;;;1.10;;
34296;SDS011;20564;42.902;25.336;2023-05-07T07:51:56;1.70;;;0.43;;
34296;SDS011;20564;42.902;25.336;2023-05-07T07:54:25;2.58;;;0.50;;
34296;SDS011;20564;42.902;25.336;2023-05-07T07:56:52;2.30;;;0.60;;
34296;SDS011;20564;42.902;25.336;2023-05-07T08:02:09;0.77;;;0.40;;
34296;SDS011;20564;42.902;25.336;2023-05-07T08:04:36;1.35;;;0.55;;
34296;SDS011;20564;42.902;25.336;2023-05-07T08:07:04;2.10;;;0.88;;
34296;SDS011;20564;42.902;25.336;2023-05-07T08:11:59;2.28;;;0.43;;
34296;SDS011;20564;42.902;25.336;2023-05-07T08:14:26;3.05;;;0.50;;
34296;SDS011;20564;42.902;25.336;2023-05-07T08:16:54;1.77;;;0.70;;
34296;SDS011;20564;42.902;25.336;2023-05-07T08:19:22;3.72;;;1.30;;
34296;SDS011;20564;42.902;25.336;2023-05-07T08:21:50;1.25;;;0.60;;
34296;SDS011;20564;42.902;25.336;2023-05-07T08:24:17;1.83;;;0.50;;
34296;SDS011;20564;42.902;25.336;2023-05-07T08:26:44;0.90;;;0.50;;
34296;SDS011;20564;42.902;25.336;2023-05-07T08:29:13;2.28;;;0.50;;
34296;SDS011;20564;42.902;25.336;2023-05-07T08:31:43;1.98;;;0.45;;
34296;SDS011;20564;42.902;25.336;2023-05-07T08:34:22;1.42;;;0.63;;
34296;SDS011;20564;42.902;25.336;2023-05-07T08:36:50;2.67;;;0.98;;
34296;SDS011;20564;42.902;25.336;2023-05-07T08:39:21;3.13;;;0.90;;
34296;SDS011;20564;42.902;25.336;2023-05-07T08:41:59;2.17;;;0.70;;
34296;SDS011;20564;42.902;25.336;2023-05-07T08:48:17;1.25;;;0.70;;
34296;SDS011;20564;42.902;25.336;2023-05-07T08:50:45;1.95;;;0.80;;
34296;SDS011;20564;42.902;25.336;2023-05-07T08:53:20;1.60;;;0.60;;
34296;SDS011;20564;42.902;25.336;2023-05-07T08:55:58;0.80;;;0.50;;
34296;SDS011;20564;42.902;25.336;2023-05-07T08:59:02;1.50;;;0.70;;
34296;SDS011;20564;42.902;25.336;2023-05-07T09:01:40;1.50;;;0.73;;
34296;SDS011;20564;42.902;25.336;2023-05-07T09:04:22;3.13;;;0.75;;
34296;SDS011;20564;42.902;25.336;2023-05-07T09:07:16;1.00;;;0.68;;
34296;SDS011;20564;42.902;25.336;2023-05-07T09:09:53;2.13;;;0.80;;
34296;SDS011;20564;42.902;25.336;2023-05-07T09:12:31;1.15;;;0.75;;
34296;SDS011;20564;42.902;25.336;2023-05-07T09:15:11;2.78;;;0.80;;
34296;SDS011;20564;42.902;25.336;2023-05-07T09:17:46;2.00;;;0.95;;
34296;SDS011;20564;42.902;25.336;2023-05-07T09:20:36;1.88;;;0.60;;
34296;SDS011;20564;42.902;25.336;2023-05-07T09:23:10;2.38;;;0.82;;
34296;SDS011;20564;42.902;25.336;2023-05-07T09:25:50;1.73;;;0.80;;
34296;SDS011;20564;42.902;25.336;2023-05-07T09:28:37;1.17;;;0.50;;
34296;SDS011;20564;42.902;25.336;2023-05-07T09:31:05;1.38;;;0.80;;
34296;SDS011;20564;42.902;25.336;2023-05-07T09:33:42;2.00;;;0.88;;
34296;SDS011;20564;42.902;25.336;2023-05-07T09:36:31;1.48;;;0.70;;
34296;SDS011;20564;42.902;25.336;2023-05-07T09:39:00;1.85;;;0.88;;
34296;SDS011;20564;42.902;25.336;2023-05-07T09:41:29;2.05;;;0.90;;
34296;SDS011;20564;42.902;25.336;2023-05-07T09:44:08;1.50;;;0.70;;
34296;SDS011;20564;42.902;25.336;2023-05-07T09:46:41;2.15;;;0.60;;
34296;SDS011;20564;42.902;25.336;2023-05-07T09:52:22;1.58;;;0.80;;
34296;SDS011;20564;42.902;25.336;2023-05-07T09:55:00;1.92;;;0.93;;
34296;SDS011;20564;42.902;25.336;2023-05-07T09:57:34;2.72;;;1.17;;
34296;SDS011;20564;42.902;25.336;2023-05-07T10:00:23;2.05;;;0.82;;
34296;SDS011;20564;42.902;25.336;2023-05-07T10:03:12;2.45;;;0.82;;
34296;SDS011;20564;42.902;25.336;2023-05-07T10:08:27;2.47;;;0.90;;
34296;SDS011;20564;42.902;25.336;2023-05-07T10:11:03;11.02;;;3.90;;
34296;SDS011;20564;42.902;25.336;2023-05-07T10:13:36;12.27;;;4.50;;
34296;SDS011;20564;42.902;25.336;2023-05-07T10:16:34;14.15;;;5.00;;
34296;SDS011;20564;42.902;25.336;2023-05-07T10:19:06;5.53;;;2.05;;
34296;SDS011;20564;42.902;25.336;2023-05-07T10:25:33;2.20;;;0.93;;
34296;SDS011;20564;42.902;25.336;2023-05-07T10:28:19;3.47;;;0.95;;
34296;SDS011;20564;42.902;25.336;2023-05-07T10:34:21;4.43;;;1.35;;
34296;SDS011;20564;42.902;25.336;2023-05-07T10:36:54;3.90;;;1.30;;
34296;SDS011;20564;42.902;25.336;2023-05-07T10:39:27;3.28;;;1.10;;
34296;SDS011;20564;42.902;25.336;2023-05-07T10:42:14;2.50;;;1.20;;
34296;SDS011;20564;42.902;25.336;2023-05-07T10:45:24;2.03;;;1.00;;
34296;SDS011;20564;42.902;25.336;2023-05-07T10:54:03;1.92;;;1.00;;
34296;SDS011;20564;42.902;25.336;2023-05-07T10:56:40;1.38;;;0.73;;
34296;SDS011;20564;42.902;25.336;2023-05-07T10:59:30;3.30;;;1.00;;
34296;SDS011;20564;42.902;25.336;2023-05-07T11:02:09;3.80;;;0.90;;
34296;SDS011;20564;42.902;25.336;2023-05-07T11:04:41;1.95;;;1.05;;
34296;SDS011;20564;42.902;25.336;2023-05-07T11:18:01;2.78;;;0.98;;
34296;SDS011;20564;42.902;25.336;2023-05-07T11:26:05;2.60;;;0.90;;
34296;SDS011;20564;42.902;25.336;2023-05-07T11:28:37;2.40;;;0.95;;
34296;SDS011;20564;42.902;25.336;2023-05-07T11:31:09;2.75;;;1.00;;
34296;SDS011;20564;42.902;25.336;2023-05-07T11:33:41;2.97;;;0.98;;
34296;SDS011;20564;42.902;25.336;2023-05-07T11:36:10;4.57;;;1.05;;
34296;SDS011;20564;42.902;25.336;2023-05-07T11:38:43;3.92;;;1.02;;
34296;SDS011;20564;42.902;25.336;2023-05-07T11:41:10;3.42;;;1.38;;
34296;SDS011;20564;42.902;25.336;2023-05-07T11:43:40;2.95;;;1.00;;
34296;SDS011;20564;42.902;25.336;2023-05-07T11:46:32;3.28;;;1.10;;
34296;SDS011;20564;42.902;25.336;2023-05-07T11:49:19;3.90;;;1.15;;
34296;SDS011;20564;42.902;25.336;2023-05-07T11:51:58;3.17;;;1.02;;
34296;SDS011;20564;42.902;25.336;2023-05-07T11:54:25;3.22;;;1.33;;
34296;SDS011;20564;42.902;25.336;2023-05-07T11:56:54;3.15;;;1.10;;
34296;SDS011;20564;42.902;25.336;2023-05-07T11:59:29;2.17;;;0.88;;
34296;SDS011;20564;42.902;25.336;2023-05-07T12:01:57;2.72;;;1.20;;
34296;SDS011;20564;42.902;25.336;2023-05-07T12:04:26;3.92;;;1.23;;
34296;SDS011;20564;42.902;25.336;2023-05-07T12:06:56;4.55;;;0.93;;
34296;SDS011;20564;42.902;25.336;2023-05-07T12:09:23;2.28;;;0.98;;
34296;SDS011;20564;42.902;25.336;2023-05-07T12:11:52;1.77;;;0.88;;
34296;SDS011;20564;42.902;25.336;2023-05-07T12:14:26;2.47;;;1.02;;
34296;SDS011;20564;42.902;25.336;2023-05-07T12:16:55;2.53;;;1.30;;
34296;SDS011;20564;42.902;25.336;2023-05-07T12:19:23;2.92;;;1.17;;
34296;SDS011;20564;42.902;25.336;2023-05-07T12:21:50;3.13;;;1.17;;
34296;SDS011;20564;42.902;25.336;2023-05-07T12:24:24;3.13;;;1.20;;
34296;SDS011;20564;42.902;25.336;2023-05-07T12:26:59;1.80;;;0.90;;
34296;SDS011;20564;42.902;25.336;2023-05-07T12:29:30;6.13;;;1.45;;
34296;SDS011;20564;42.902;25.336;2023-05-07T12:31:58;3.67;;;1.38;;
34296;SDS011;20564;42.902;25.336;2023-05-07T12:34:25;2.00;;;0.77;;
34296;SDS011;20564;42.902;25.336;2023-05-07T12:36:52;2.72;;;1.30;;
34296;SDS011;20564;42.902;25.336;2023-05-07T12:39:19;2.53;;;1.00;;
34296;SDS011;20564;42.902;25.336;2023-05-07T12:44:25;1.90;;;0.90;;
34296;SDS011;20564;42.902;25.336;2023-05-07T12:47:06;2.50;;;0.98;;
34296;SDS011;20564;42.902;25.336;2023-05-07T12:49:36;2.13;;;0.75;;
34296;SDS011;20564;42.902;25.336;2023-05-07T12:52:06;1.85;;;0.90;;
34296;SDS011;20564;42.902;25.336;2023-05-07T12:54:34;2.00;;;0.98;;
34296;SDS011;20564;42.902;25.336;2023-05-07T12:57:04;3.00;;;1.00;;
34296;SDS011;20564;42.902;25.336;2023-05-07T13:02:02;3.25;;;1.10;;
34296;SDS011;20564;42.902;25.336;2023-05-07T13:04:29;2.30;;;1.00;;
34296;SDS011;20564;42.902;25.336;2023-05-07T13:06:56;3.00;;;1.10;;
34296;SDS011;20564;42.902;25.336;2023-05-07T13:09:25;2.25;;;0.85;;
34296;SDS011;20564;42.902;25.336;2023-05-07T13:11:52;1.67;;;0.80;;
34296;SDS011;20564;42.902;25.336;2023-05-07T13:14:19;2.05;;;1.00;;
34296;SDS011;20564;42.902;25.336;2023-05-07T13:16:50;2.22;;;0.95;;
34296;SDS011;20564;42.902;25.336;2023-05-07T13:19:18;3.25;;;1.10;;
34296;SDS011;20564;42.902;25.336;2023-05-07T13:21:48;2.10;;;0.63;;
34296;SDS011;20564;42.902;25.336;2023-05-07T13:24:19;1.45;;;0.70;;
34296;SDS011;20564;42.902;25.336;2023-05-07T13:26:47;2.35;;;1.20;;
34296;SDS011;20564;42.902;25.336;2023-05-07T13:29:14;3.40;;;1.10;;
34296;SDS011;20564;42.902;25.336;2023-05-07T13:31:41;2.38;;;0.95;;
34296;SDS011;20564;42.902;25.336;2023-05-07T13:34:39;2.58;;;1.00;;
34296;SDS011;20564;42.902;25.336;2023-05-07T13:37:07;3.80;;;0.90;;
34296;SDS011;20564;42.902;25.336;2023-05-07T13:39:52;2.33;;;1.00;;
34296;SDS011;20564;42.902;25.336;2023-05-07T13:43:44;2.08;;;0.85;;
34296;SDS011;20564;42.902;25.336;2023-05-07T13:46:29;3.13;;;1.40;;
34296;SDS011;20564;42.902;25.336;2023-05-07T13:49:00;3.58;;;1.35;;
34296;SDS011;20564;42.902;25.336;2023-05-07T13:51:33;1.85;;;1.00;;
34296;SDS011;20564;42.902;25.336;2023-05-07T13:54:01;3.50;;;0.80;;
34296;SDS011;20564;42.902;25.336;2023-05-07T14:00:40;1.77;;;0.80;;
34296;SDS011;20564;42.902;25.336;2023-05-07T14:03:37;3.60;;;1.15;;
34296;SDS011;20564;42.902;25.336;2023-05-07T14:10:26;1.90;;;0.85;;
34296;SDS011;20564;42.902;25.336;2023-05-07T14:12:54;3.03;;;1.00;;
34296;SDS011;20564;42.902;25.336;2023-05-07T14:15:34;2.35;;;1.00;;
34296;SDS011;20564;42.902;25.336;2023-05-07T14:18:01;2.10;;;0.90;;
34296;SDS011;20564;42.902;25.336;2023-05-07T14:20:28;2.45;;;0.82;;
34296;SDS011;20564;42.902;25.336;2023-05-07T14:22:57;2.28;;;0.80;;
34296;SDS011;20564;42.902;25.336;2023-05-07T14:25:34;4.20;;;0.95;;
34296;SDS011;20564;42.902;25.336;2023-05-07T14:28:13;4.55;;;1.00;;
34296;SDS011;20564;42.902;25.336;2023-05-07T14:31:03;2.17;;;0.80;;
34296;SDS011;20564;42.902;25.336;2023-05-07T14:34:01;3.45;;;0.85;;
34296;SDS011;20564;42.902;25.336;2023-05-07T14:36:37;1.33;;;0.57;;
34296;SDS011;20564;42.902;25.336;2023-05-07T14:39:11;2.88;;;1.08;;
34296;SDS011;20564;42.902;25.336;2023-05-07T14:41:45;1.83;;;0.60;;
34296;SDS011;20564;42.902;25.336;2023-05-07T14:44:13;3.42;;;0.70;;
34296;SDS011;20564;42.902;25.336;2023-05-07T14:46:57;2.58;;;1.23;;
34296;SDS011;20564;42.902;25.336;2023-05-07T14:49:35;1.50;;;0.80;;
34296;SDS011;20564;42.902;25.336;2023-05-07T14:54:33;3.05;;;1.27;;
34296;SDS011;20564;42.902;25.336;2023-05-07T14:57:05;2.47;;;1.10;;
34296;SDS011;20564;42.902;25.336;2023-05-07T14:59:35;2.40;;;1.10;;
34296;SDS011;20564;42.902;25.336;2023-05-07T15:02:03;2.47;;;0.60;;
34296;SDS011;20564;42.902;25.336;2023-05-07T15:04:35;5.40;;;1.15;;
34296;SDS011;20564;42.902;25.336;2023-05-07T15:07:15;3.33;;;1.23;;
34296;SDS011;20564;42.902;25.336;2023-05-07T15:09:46;7.53;;;1.65;;
34296;SDS011;20564;42.902;25.336;2023-05-07T15:12:26;2.50;;;1.10;;
34296;SDS011;20564;42.902;25.336;2023-05-07T15:15:24;4.97;;;1.08;;
34296;SDS011;20564;42.902;25.336;2023-05-07T15:18:16;7.25;;;1.40;;
34296;SDS011;20564;42.902;25.336;2023-05-07T15:20:48;4.68;;;1.10;;
34296;SDS011;20564;42.902;25.336;2023-05-07T15:23:27;2.70;;;0.85;;
34296;SDS011;20564;42.902;25.336;2023-05-07T15:25:54;7.65;;;1.30;;
34296;SDS011;20564;42.902;25.336;2023-05-07T15:28:23;3.42;;;1.00;;
34296;SDS011;20564;42.902;25.336;2023-05-07T15:30:54;2.17;;;0.80;;
34296;SDS011;20564;42.902;25.336;2023-05-07T15:33:25;4.85;;;1.10;;
34296;SDS011;20564;42.902;25.336;2023-05-07T15:35:52;1.88;;;0.90;;
34296;SDS011;20564;42.902;25.336;2023-05-07T15:38:20;2.17;;;0.90;;
34296;SDS011;20564;42.902;25.336;2023-05-07T15:43:28;2.50;;;0.80;;
34296;SDS011;20564;42.902;25.336;2023-05-07T15:45:59;2.90;;;1.00;;
34296;SDS011;20564;42.902;25.336;2023-05-07T15:48:27;2.58;;;1.20;;
34296;SDS011;20564;42.902;25.336;2023-05-07T15:51:01;6.38;;;1.88;;
34296;SDS011;20564;42.902;25.336;2023-05-07T15:53:35;4.32;;;1.02;;
34296;SDS011;20564;42.902;25.336;2023-05-07T15:56:06;15.23;;;3.05;;
34296;SDS011;20564;42.902;25.336;2023-05-07T15:58:34;6.30;;;1.63;;
34296;SDS011;20564;42.902;25.336;2023-05-07T16:01:03;9.77;;;1.70;;
34296;SDS011;20564;42.902;25.336;2023-05-07T16:03:31;2.22;;;1.00;;
34296;SDS011;20564;42.902;25.336;2023-05-07T16:05:59;5.18;;;1.27;;
34296;SDS011;20564;42.902;25.336;2023-05-07T16:08:30;3.63;;;1.02;;
34296;SDS011;20564;42.902;25.336;2023-05-07T16:10:57;2.50;;;0.93;;
34296;SDS011;20564;42.902;25.336;2023-05-07T16:13:24;4.20;;;1.15;;
34296;SDS011;20564;42.902;25.336;2023-05-07T16:15:55;2.97;;;1.08;;
34296;SDS011;20564;42.902;25.336;2023-05-07T16:18:26;4.80;;;1.13;;
34296;SDS011;20564;42.902;25.336;2023-05-07T16:20:54;4.78;;;1.15;;
34296;SDS011;20564;42.902;25.336;2023-05-07T16:23:21;3.08;;;1.00;;
34296;SDS011;20564;42.902;25.336;2023-05-07T16:25:48;3.58;;;1.25;;
34296;SDS011;20564;42.902;25.336;2023-05-07T16:28:16;4.60;;;1.10;;